sensor_id;sensor_type;location;lat;lon;timestamp;P1;durP1;ratioP1;P2;durP2;ratioP2
1400;SDS011;46518;48.842;8.926;2023-11-21T00:00:14;2.28;;;1.05;;
1400;SDS011;46518;48.842;8.926;2023-11-21T00:02:43;1.15;;;0.75;;
1400;SDS011;46518;48.842;8.926;2023-11-21T00:05:13;2.35;;;1.40;;
1400;SDS011;46518;48.842;8.926;2023-11-21T00:07:43;1.10;;;1.10;;
1400;SDS011;46518;48.842;8.926;2023-11-21T00:10:12;1.17;;;0.93;;
1400;SDS011;46518;48.842;8.926;2023-11-21T00:12:42;2.72;;;1.00;;
1400;SDS011;46518;48.842;8.926;2023-11-21T00:15:10;1.33;;;1.17;;
1400;SDS011;46518;48.842;8.926;2023-11-21T00:17:42;1.20;;;1.10;;
1400;SDS011;46518;48.842;8.926;2023-11-21T00:20:10;1.48;;;0.88;;
1400;SDS011;46518;48.842;8.926;2023-11-21T00:22:40;2.00;;;1.45;;
1400;SDS011;46518;48.842;8.926;2023-11-21T00:25:09;1.98;;;1.10;;
1400;SDS011;46518;48.842;8.926;2023-11-21T00:27:39;1.98;;;1.20;;
1400;SDS011;46518;48.842;8.926;2023-11-21T00:30:08;2.55;;;1.10;;
1400;SDS011;46518;48.842;8.926;2023-11-21T00:32:37;2.03;;;1.13;;
1400;SDS011;46518;48.842;8.926;2023-11-21T00:35:07;3.67;;;1.20;;
1400;SDS011;46518;48.842;8.926;2023-11-21T00:37:35;1.40;;;1.10;;
1400;SDS011;46518;48.842;8.926;2023-11-21T00:40:06;3.00;;;1.30;;
1400;SDS011;46518;48.842;8.926;2023-11-21T00:42:36;1.85;;;1.10;;
1400;SDS011;46518;48.842;8.926;2023-11-21T00:45:06;2.30;;;1.60;;
1400;SDS011;46518;48.842;8.926;2023-11-21T00:47:35;3.05;;;1.20;;
1400;SDS011;46518;48.842;8.926;2023-11-21T00:50:04;4.07;;;1.52;;
1400;SDS011;46518;48.842;8.926;2023-11-21T00:52:34;1.40;;;1.30;;
1400;SDS011;46518;48.842;8.926;2023-11-21T00:55:03;1.42;;;1.13;;
1400;SDS011;46518;48.842;8.926;2023-11-21T00:57:34;7.07;;;1.48;;
1400;SDS011;46518;48.842;8.926;2023-11-21T01:00:02;5.10;;;1.63;;
1400;SDS011;46518;48.842;8.926;2023-11-21T01:02:37;1.92;;;1.35;;
1400;SDS011;46518;48.842;8.926;2023-11-21T01:05:05;2.22;;;1.60;;
1400;SDS011;46518;48.842;8.926;2023-11-21T01:07:35;1.90;;;1.20;;
1400;SDS011;46518;48.842;8.926;2023-11-21T01:10:09;1.90;;;1.70;;
1400;SDS011;46518;48.842;8.926;2023-11-21T01:12:37;1.70;;;1.20;;
1400;SDS011;46518;48.842;8.926;2023-11-21T01:15:06;2.75;;;1.65;;
1400;SDS011;46518;48.842;8.926;2023-11-21T01:17:35;3.00;;;1.60;;
1400;SDS011;46518;48.842;8.926;2023-11-21T01:20:06;1.92;;;1.60;;
1400;SDS011;46518;48.842;8.926;2023-11-21T01:22:40;5.30;;;1.77;;
1400;SDS011;46518;48.842;8.926;2023-11-21T01:25:10;3.20;;;2.10;;
1400;SDS011;46518;48.842;8.926;2023-11-21T01:27:42;2.42;;;1.60;;
1400;SDS011;46518;48.842;8.926;2023-11-21T01:30:10;3.72;;;1.80;;
1400;SDS011;46518;48.842;8.926;2023-11-21T01:32:38;2.45;;;1.98;;
1400;SDS011;46518;48.842;8.926;2023-11-21T01:35:09;4.00;;;2.15;;
1400;SDS011;46518;48.842;8.926;2023-11-21T01:37:38;2.00;;;1.80;;
1400;SDS011;46518;48.842;8.926;2023-11-21T01:40:07;1.92;;;1.45;;
1400;SDS011;46518;48.842;8.926;2023-11-21T01:42:41;2.60;;;1.70;;
1400;SDS011;46518;48.842;8.926;2023-11-21T01:45:11;3.40;;;2.00;;
1400;SDS011;46518;48.842;8.926;2023-11-21T01:47:40;3.03;;;1.80;;
1400;SDS011;46518;48.842;8.926;2023-11-21T01:50:12;2.15;;;1.95;;
1400;SDS011;46518;48.842;8.926;2023-11-21T01:52:43;3.25;;;2.30;;
1400;SDS011;46518;48.842;8.926;2023-11-21T01:55:14;2.63;;;1.90;;
1400;SDS011;46518;48.842;8.926;2023-11-21T01:57:54;2.97;;;2.22;;
1400;SDS011;46518;48.842;8.926;2023-11-21T02:00:23;2.80;;;2.60;;
1400;SDS011;46518;48.842;8.926;2023-11-21T02:02:52;3.25;;;2.20;;
1400;SDS011;46518;48.842;8.926;2023-11-21T02:05:22;3.88;;;1.92;;
1400;SDS011;46518;48.842;8.926;2023-11-21T02:07:50;4.22;;;2.03;;
1400;SDS011;46518;48.842;8.926;2023-11-21T02:10:19;3.30;;;1.90;;
1400;SDS011;46518;48.842;8.926;2023-11-21T02:12:51;4.68;;;2.40;;
1400;SDS011;46518;48.842;8.926;2023-11-21T02:15:20;3.60;;;1.95;;
1400;SDS011;46518;48.842;8.926;2023-11-21T02:17:50;3.47;;;2.08;;
1400;SDS011;46518;48.842;8.926;2023-11-21T02:20:21;4.10;;;2.05;;
1400;SDS011;46518;48.842;8.926;2023-11-21T02:22:54;2.45;;;2.20;;
1400;SDS011;46518;48.842;8.926;2023-11-21T02:25:29;2.30;;;1.77;;
1400;SDS011;46518;48.842;8.926;2023-11-21T02:28:01;5.43;;;2.20;;
1400;SDS011;46518;48.842;8.926;2023-11-21T02:30:30;3.25;;;2.25;;
1400;SDS011;46518;48.842;8.926;2023-11-21T02:32:59;2.30;;;2.10;;
1400;SDS011;46518;48.842;8.926;2023-11-21T02:35:30;3.00;;;1.83;;
1400;SDS011;46518;48.842;8.926;2023-11-21T02:38:00;2.55;;;1.80;;
1400;SDS011;46518;48.842;8.926;2023-11-21T02:40:29;2.80;;;1.70;;
1400;SDS011;46518;48.842;8.926;2023-11-21T02:42:57;4.70;;;2.00;;
1400;SDS011;46518;48.842;8.926;2023-11-21T02:45:26;2.30;;;1.88;;
1400;SDS011;46518;48.842;8.926;2023-11-21T02:47:54;2.50;;;2.30;;
1400;SDS011;46518;48.842;8.926;2023-11-21T02:50:25;4.65;;;2.58;;
1400;SDS011;46518;48.842;8.926;2023-11-21T02:52:53;3.25;;;2.85;;
1400;SDS011;46518;48.842;8.926;2023-11-21T02:55:27;2.50;;;2.30;;
1400;SDS011;46518;48.842;8.926;2023-11-21T02:57:56;2.85;;;2.40;;
1400;SDS011;46518;48.842;8.926;2023-11-21T03:00:24;3.67;;;3.17;;
1400;SDS011;46518;48.842;8.926;2023-11-21T03:02:53;2.40;;;2.20;;
1400;SDS011;46518;48.842;8.926;2023-11-21T03:05:22;4.10;;;2.15;;
1400;SDS011;46518;48.842;8.926;2023-11-21T03:07:50;3.22;;;2.90;;
1400;SDS011;46518;48.842;8.926;2023-11-21T03:10:19;4.43;;;2.50;;
1400;SDS011;46518;48.842;8.926;2023-11-21T03:12:51;3.70;;;2.22;;
1400;SDS011;46518;48.842;8.926;2023-11-21T03:15:19;2.05;;;1.83;;
1400;SDS011;46518;48.842;8.926;2023-11-21T03:17:48;3.25;;;1.70;;
1400;SDS011;46518;48.842;8.926;2023-11-21T03:20:17;2.28;;;1.60;;
1400;SDS011;46518;48.842;8.926;2023-11-21T03:22:45;1.88;;;1.52;;
1400;SDS011;46518;48.842;8.926;2023-11-21T03:25:14;6.28;;;2.42;;
1400;SDS011;46518;48.842;8.926;2023-11-21T03:27:44;4.53;;;1.90;;
1400;SDS011;46518;48.842;8.926;2023-11-21T03:30:13;1.80;;;1.70;;
1400;SDS011;46518;48.842;8.926;2023-11-21T03:32:42;1.98;;;1.77;;
1400;SDS011;46518;48.842;8.926;2023-11-21T03:35:10;3.60;;;2.10;;
1400;SDS011;46518;48.842;8.926;2023-11-21T03:37:39;2.55;;;2.35;;
1400;SDS011;46518;48.842;8.926;2023-11-21T03:40:09;1.98;;;1.70;;
1400;SDS011;46518;48.842;8.926;2023-11-21T03:42:39;2.22;;;2.03;;
1400;SDS011;46518;48.842;8.926;2023-11-21T03:45:08;5.88;;;2.20;;
1400;SDS011;46518;48.842;8.926;2023-11-21T03:47:41;3.38;;;2.45;;
1400;SDS011;46518;48.842;8.926;2023-11-21T03:50:10;2.90;;;2.30;;
1400;SDS011;46518;48.842;8.926;2023-11-21T03:52:43;2.00;;;1.83;;
1400;SDS011;46518;48.842;8.926;2023-11-21T03:55:12;2.17;;;1.73;;
1400;SDS011;46518;48.842;8.926;2023-11-21T03:57:43;2.58;;;2.15;;
1400;SDS011;46518;48.842;8.926;2023-11-21T04:00:14;2.90;;;1.80;;
1400;SDS011;46518;48.842;8.926;2023-11-21T04:02:49;2.22;;;1.80;;
1400;SDS011;46518;48.842;8.926;2023-11-21T04:05:20;2.15;;;1.73;;
1400;SDS011;46518;48.842;8.926;2023-11-21T04:07:52;2.30;;;2.10;;
1400;SDS011;46518;48.842;8.926;2023-11-21T04:10:23;2.03;;;1.45;;
1400;SDS011;46518;48.842;8.926;2023-11-21T04:12:55;2.10;;;1.85;;
1400;SDS011;46518;48.842;8.926;2023-11-21T04:15:27;2.28;;;1.88;;
1400;SDS011;46518;48.842;8.926;2023-11-21T04:18:00;2.85;;;1.70;;
1400;SDS011;46518;48.842;8.926;2023-11-21T04:20:34;2.08;;;1.88;;
1400;SDS011;46518;48.842;8.926;2023-11-21T04:23:06;2.67;;;2.03;;
1400;SDS011;46518;48.842;8.926;2023-11-21T04:25:40;1.52;;;1.42;;
1400;SDS011;46518;48.842;8.926;2023-11-21T04:28:10;1.20;;;1.10;;
1400;SDS011;46518;48.842;8.926;2023-11-21T04:30:42;2.53;;;1.50;;
1400;SDS011;46518;48.842;8.926;2023-11-21T04:33:17;1.73;;;1.25;;
1400;SDS011;46518;48.842;8.926;2023-11-21T04:35:50;3.58;;;1.80;;
1400;SDS011;46518;48.842;8.926;2023-11-21T04:38:22;1.77;;;1.40;;
1400;SDS011;46518;48.842;8.926;2023-11-21T04:40:53;2.85;;;2.50;;
1400;SDS011;46518;48.842;8.926;2023-11-21T04:43:21;1.95;;;1.73;;
1400;SDS011;46518;48.842;8.926;2023-11-21T04:45:51;2.45;;;1.48;;
1400;SDS011;46518;48.842;8.926;2023-11-21T04:48:26;1.27;;;1.17;;
1400;SDS011;46518;48.842;8.926;2023-11-21T04:50:57;1.20;;;1.10;;
1400;SDS011;46518;48.842;8.926;2023-11-21T04:53:27;1.33;;;1.23;;
1400;SDS011;46518;48.842;8.926;2023-11-21T04:55:56;1.98;;;1.55;;
1400;SDS011;46518;48.842;8.926;2023-11-21T05:01:28;1.83;;;1.70;;
1400;SDS011;46518;48.842;8.926;2023-11-21T05:03:59;2.25;;;1.98;;
1400;SDS011;46518;48.842;8.926;2023-11-21T05:06:30;2.85;;;2.05;;
1400;SDS011;46518;48.842;8.926;2023-11-21T05:09:03;2.88;;;1.77;;
1400;SDS011;46518;48.842;8.926;2023-11-21T05:11:33;1.55;;;1.35;;
1400;SDS011;46518;48.842;8.926;2023-11-21T05:14:02;1.83;;;1.73;;
1400;SDS011;46518;48.842;8.926;2023-11-21T05:16:35;1.90;;;1.80;;
1400;SDS011;46518;48.842;8.926;2023-11-21T05:19:08;4.85;;;3.70;;
1400;SDS011;46518;48.842;8.926;2023-11-21T05:21:41;2.88;;;2.60;;
1400;SDS011;46518;48.842;8.926;2023-11-21T05:24:11;3.40;;;2.63;;
1400;SDS011;46518;48.842;8.926;2023-11-21T05:26:42;2.95;;;2.33;;
1400;SDS011;46518;48.842;8.926;2023-11-21T05:29:13;2.90;;;2.10;;
1400;SDS011;46518;48.842;8.926;2023-11-21T05:31:44;2.90;;;1.45;;
1400;SDS011;46518;48.842;8.926;2023-11-21T05:34:17;1.92;;;1.33;;
1400;SDS011;46518;48.842;8.926;2023-11-21T05:36:46;1.67;;;1.58;;
1400;SDS011;46518;48.842;8.926;2023-11-21T05:39:16;2.47;;;1.40;;
1400;SDS011;46518;48.842;8.926;2023-11-21T05:41:44;2.17;;;1.98;;
1400;SDS011;46518;48.842;8.926;2023-11-21T05:44:16;2.28;;;1.70;;
1400;SDS011;46518;48.842;8.926;2023-11-21T05:46:45;1.63;;;1.52;;
1400;SDS011;46518;48.842;8.926;2023-11-21T05:49:16;2.38;;;2.17;;
1400;SDS011;46518;48.842;8.926;2023-11-21T05:51:49;1.75;;;1.60;;
1400;SDS011;46518;48.842;8.926;2023-11-21T05:54:21;2.85;;;2.33;;
1400;SDS011;46518;48.842;8.926;2023-11-21T05:56:50;2.70;;;2.50;;
1400;SDS011;46518;48.842;8.926;2023-11-21T05:59:21;2.60;;;2.40;;
1400;SDS011;46518;48.842;8.926;2023-11-21T06:01:53;2.65;;;2.40;;
1400;SDS011;46518;48.842;8.926;2023-11-21T06:04:24;3.28;;;2.63;;
1400;SDS011;46518;48.842;8.926;2023-11-21T06:06:55;2.63;;;2.40;;
1400;SDS011;46518;48.842;8.926;2023-11-21T06:09:24;4.30;;;3.05;;
1400;SDS011;46518;48.842;8.926;2023-11-21T06:11:55;3.92;;;3.58;;
1400;SDS011;46518;48.842;8.926;2023-11-21T06:14:25;5.80;;;3.17;;
1400;SDS011;46518;48.842;8.926;2023-11-21T06:16:55;4.03;;;2.55;;
1400;SDS011;46518;48.842;8.926;2023-11-21T06:19:25;2.92;;;2.65;;
1400;SDS011;46518;48.842;8.926;2023-11-21T06:21:55;2.70;;;2.42;;
1400;SDS011;46518;48.842;8.926;2023-11-21T06:24:27;2.97;;;2.78;;
1400;SDS011;46518;48.842;8.926;2023-11-21T06:26:56;2.38;;;1.98;;
1400;SDS011;46518;48.842;8.926;2023-11-21T06:29:25;2.28;;;2.10;;
1400;SDS011;46518;48.842;8.926;2023-11-21T06:31:54;1.58;;;1.48;;
1400;SDS011;46518;48.842;8.926;2023-11-21T06:34:27;2.50;;;2.30;;
1400;SDS011;46518;48.842;8.926;2023-11-21T06:36:56;7.35;;;4.70;;
1400;SDS011;46518;48.842;8.926;2023-11-21T06:39:25;6.25;;;5.38;;
1400;SDS011;46518;48.842;8.926;2023-11-21T06:41:54;3.80;;;3.47;;
1400;SDS011;46518;48.842;8.926;2023-11-21T06:44:23;3.70;;;3.40;;
1400;SDS011;46518;48.842;8.926;2023-11-21T06:46:51;4.13;;;3.17;;
1400;SDS011;46518;48.842;8.926;2023-11-21T06:49:20;3.30;;;3.00;;
1400;SDS011;46518;48.842;8.926;2023-11-21T06:51:51;2.80;;;2.60;;
1400;SDS011;46518;48.842;8.926;2023-11-21T06:54:21;3.85;;;3.50;;
1400;SDS011;46518;48.842;8.926;2023-11-21T06:56:49;3.25;;;2.95;;
1400;SDS011;46518;48.842;8.926;2023-11-21T06:59:20;2.90;;;2.70;;
1400;SDS011;46518;48.842;8.926;2023-11-21T07:01:48;2.90;;;2.65;;
1400;SDS011;46518;48.842;8.926;2023-11-21T07:04:17;2.95;;;2.55;;
1400;SDS011;46518;48.842;8.926;2023-11-21T07:06:46;4.15;;;3.70;;
1400;SDS011;46518;48.842;8.926;2023-11-21T07:09:16;6.70;;;5.53;;
1400;SDS011;46518;48.842;8.926;2023-11-21T07:11:47;4.65;;;4.15;;
1400;SDS011;46518;48.842;8.926;2023-11-21T07:14:15;4.18;;;3.60;;
1400;SDS011;46518;48.842;8.926;2023-11-21T07:16:46;3.00;;;2.63;;
1400;SDS011;46518;48.842;8.926;2023-11-21T07:19:15;8.77;;;7.28;;
1400;SDS011;46518;48.842;8.926;2023-11-21T07:21:44;10.68;;;7.03;;
1400;SDS011;46518;48.842;8.926;2023-11-21T07:24:13;7.78;;;6.70;;
1400;SDS011;46518;48.842;8.926;2023-11-21T07:26:44;8.10;;;6.35;;
1400;SDS011;46518;48.842;8.926;2023-11-21T07:29:14;5.88;;;5.18;;
1400;SDS011;46518;48.842;8.926;2023-11-21T07:41:39;5.72;;;5.22;;
1400;SDS011;46518;48.842;8.926;2023-11-21T08:36:42;3.70;;;3.40;;
1400;SDS011;46518;48.842;8.926;2023-11-21T08:40:24;3.35;;;3.05;;
1400;SDS011;46518;48.842;8.926;2023-11-21T08:43:20;3.45;;;3.15;;
1400;SDS011;46518;48.842;8.926;2023-11-21T08:45:56;2.47;;;2.28;;
1400;SDS011;46518;48.842;8.926;2023-11-21T08:48:29;2.75;;;2.58;;
1400;SDS011;46518;48.842;8.926;2023-11-21T08:51:01;2.55;;;2.10;;
1400;SDS011;46518;48.842;8.926;2023-11-21T08:53:38;4.13;;;3.00;;
1400;SDS011;46518;48.842;8.926;2023-11-21T08:56:12;11.10;;;10.00;;
1400;SDS011;46518;48.842;8.926;2023-11-21T08:58:44;17.27;;;13.50;;
1400;SDS011;46518;48.842;8.926;2023-11-21T09:01:16;12.07;;;10.80;;
1400;SDS011;46518;48.842;8.926;2023-11-21T09:03:48;12.00;;;9.32;;
1400;SDS011;46518;48.842;8.926;2023-11-21T09:06:24;7.95;;;7.30;;
1400;SDS011;46518;48.842;8.926;2023-11-21T09:08:58;9.40;;;8.43;;
1400;SDS011;46518;48.842;8.926;2023-11-21T09:11:30;8.10;;;7.22;;
1400;SDS011;46518;48.842;8.926;2023-11-21T09:14:05;7.63;;;6.93;;
1400;SDS011;46518;48.842;8.926;2023-11-21T09:16:38;7.03;;;6.32;;
1400;SDS011;46518;48.842;8.926;2023-11-21T09:19:09;6.07;;;5.05;;
1400;SDS011;46518;48.842;8.926;2023-11-21T09:21:44;6.22;;;5.30;;
1400;SDS011;46518;48.842;8.926;2023-11-21T09:24:17;5.18;;;4.63;;
1400;SDS011;46518;48.842;8.926;2023-11-21T09:26:50;4.75;;;4.35;;
1400;SDS011;46518;48.842;8.926;2023-11-21T09:29:22;5.35;;;4.53;;
1400;SDS011;46518;48.842;8.926;2023-11-21T09:31:53;5.93;;;4.85;;
1400;SDS011;46518;48.842;8.926;2023-11-21T09:34:27;4.63;;;4.05;;
1400;SDS011;46518;48.842;8.926;2023-11-21T09:37:01;5.85;;;4.20;;
1400;SDS011;46518;48.842;8.926;2023-11-21T09:39:36;5.72;;;4.35;;
1400;SDS011;46518;48.842;8.926;2023-11-21T09:42:10;4.82;;;4.18;;
1400;SDS011;46518;48.842;8.926;2023-11-21T09:44:45;7.45;;;6.07;;
1400;SDS011;46518;48.842;8.926;2023-11-21T09:47:25;7.65;;;6.55;;
1400;SDS011;46518;48.842;8.926;2023-11-21T09:49:58;8.73;;;7.25;;
1400;SDS011;46518;48.842;8.926;2023-11-21T09:52:32;5.18;;;3.75;;
1400;SDS011;46518;48.842;8.926;2023-11-21T09:55:13;3.85;;;3.28;;
1400;SDS011;46518;48.842;8.926;2023-11-21T09:57:49;5.28;;;3.72;;
1400;SDS011;46518;48.842;8.926;2023-11-21T10:00:23;2.47;;;2.28;;
1400;SDS011;46518;48.842;8.926;2023-11-21T10:02:55;1.27;;;1.17;;
1400;SDS011;46518;48.842;8.926;2023-11-21T10:05:29;1.15;;;1.00;;
1400;SDS011;46518;48.842;8.926;2023-11-21T10:08:02;1.50;;;0.98;;
1400;SDS011;46518;48.842;8.926;2023-11-21T10:10:42;5.70;;;1.10;;
1400;SDS011;46518;48.842;8.926;2023-11-21T10:13:15;1.10;;;1.00;;
1400;SDS011;46518;48.842;8.926;2023-11-21T10:15:51;0.98;;;0.98;;
1400;SDS011;46518;48.842;8.926;2023-11-21T10:18:22;1.50;;;1.00;;
1400;SDS011;46518;48.842;8.926;2023-11-21T10:20:55;0.80;;;0.70;;
1400;SDS011;46518;48.842;8.926;2023-11-21T10:23:27;0.55;;;0.55;;
1400;SDS011;46518;48.842;8.926;2023-11-21T10:26:00;0.80;;;0.80;;
1400;SDS011;46518;48.842;8.926;2023-11-21T10:28:54;1.00;;;0.80;;
1400;SDS011;46518;48.842;8.926;2023-11-21T10:31:28;0.60;;;0.57;;
1400;SDS011;46518;48.842;8.926;2023-11-21T10:34:11;0.70;;;0.70;;
1400;SDS011;46518;48.842;8.926;2023-11-21T10:36:44;0.60;;;0.60;;
1400;SDS011;46518;48.842;8.926;2023-11-21T10:39:23;0.60;;;0.50;;
1400;SDS011;46518;48.842;8.926;2023-11-21T10:41:59;0.50;;;0.50;;
1400;SDS011;46518;48.842;8.926;2023-11-21T10:44:31;0.60;;;0.60;;
1400;SDS011;46518;48.842;8.926;2023-11-21T10:47:04;0.95;;;0.50;;
1400;SDS011;46518;48.842;8.926;2023-11-21T10:49:40;0.63;;;0.60;;
1400;SDS011;46518;48.842;8.926;2023-11-21T10:52:13;2.40;;;2.20;;
1400;SDS011;46518;48.842;8.926;2023-11-21T10:54:46;0.95;;;0.95;;
1400;SDS011;46518;48.842;8.926;2023-11-21T10:57:23;1.33;;;1.20;;
1400;SDS011;46518;48.842;8.926;2023-11-21T10:59:55;1.88;;;1.77;;
1400;SDS011;46518;48.842;8.926;2023-11-21T11:02:27;2.13;;;2.03;;
1400;SDS011;46518;48.842;8.926;2023-11-21T11:05:02;3.40;;;3.20;;
1400;SDS011;46518;48.842;8.926;2023-11-21T11:07:34;1.92;;;1.60;;
1400;SDS011;46518;48.842;8.926;2023-11-21T11:10:08;2.30;;;2.10;;
1400;SDS011;46518;48.842;8.926;2023-11-21T11:12:45;2.15;;;2.00;;
1400;SDS011;46518;48.842;8.926;2023-11-21T11:15:18;2.22;;;2.10;;
1400;SDS011;46518;48.842;8.926;2023-11-21T11:17:53;2.30;;;2.08;;
1400;SDS011;46518;48.842;8.926;2023-11-21T11:20:34;3.60;;;3.30;;
1400;SDS011;46518;48.842;8.926;2023-11-21T11:23:16;4.00;;;3.60;;
1400;SDS011;46518;48.842;8.926;2023-11-21T11:26:07;4.78;;;4.28;;
1400;SDS011;46518;48.842;8.926;2023-11-21T11:28:55;4.43;;;4.03;;
1400;SDS011;46518;48.842;8.926;2023-11-21T11:31:52;6.50;;;4.57;;
1400;SDS011;46518;48.842;8.926;2023-11-21T11:34:35;4.55;;;4.15;;
1400;SDS011;46518;48.842;8.926;2023-11-21T11:37:12;5.63;;;5.03;;
1400;SDS011;46518;48.842;8.926;2023-11-21T11:39:46;6.00;;;5.20;;
1400;SDS011;46518;48.842;8.926;2023-11-21T11:42:21;5.40;;;4.82;;
1400;SDS011;46518;48.842;8.926;2023-11-21T11:44:57;6.57;;;5.15;;
1400;SDS011;46518;48.842;8.926;2023-11-21T11:47:30;6.43;;;5.70;;
1400;SDS011;46518;48.842;8.926;2023-11-21T11:50:12;6.40;;;5.68;;
1400;SDS011;46518;48.842;8.926;2023-11-21T11:52:46;6.22;;;5.57;;
1400;SDS011;46518;48.842;8.926;2023-11-21T11:55:21;5.05;;;4.45;;
1400;SDS011;46518;48.842;8.926;2023-11-21T11:57:54;7.15;;;6.07;;
1400;SDS011;46518;48.842;8.926;2023-11-21T12:00:34;7.20;;;6.30;;
1400;SDS011;46518;48.842;8.926;2023-11-21T12:03:10;6.80;;;5.90;;
1400;SDS011;46518;48.842;8.926;2023-11-21T12:05:48;7.05;;;5.28;;
1400;SDS011;46518;48.842;8.926;2023-11-21T12:08:29;5.57;;;4.93;;
1400;SDS011;46518;48.842;8.926;2023-11-21T12:11:03;5.93;;;5.32;;
1400;SDS011;46518;48.842;8.926;2023-11-21T12:13:37;6.65;;;5.80;;
1400;SDS011;46518;48.842;8.926;2023-11-21T12:16:13;7.10;;;5.25;;
1400;SDS011;46518;48.842;8.926;2023-11-21T12:18:46;8.45;;;5.95;;
1400;SDS011;46518;48.842;8.926;2023-11-21T12:21:19;7.88;;;6.28;;
1400;SDS011;46518;48.842;8.926;2023-11-21T12:23:51;7.32;;;5.50;;
1400;SDS011;46518;48.842;8.926;2023-11-21T12:26:23;5.95;;;5.35;;
1400;SDS011;46518;48.842;8.926;2023-11-21T12:28:55;8.13;;;6.60;;
1400;SDS011;46518;48.842;8.926;2023-11-21T12:31:30;9.27;;;7.32;;
1400;SDS011;46518;48.842;8.926;2023-11-21T12:34:02;9.18;;;7.80;;
1400;SDS011;46518;48.842;8.926;2023-11-21T12:36:37;12.80;;;8.88;;
1400;SDS011;46518;48.842;8.926;2023-11-21T12:39:11;10.48;;;8.27;;
1400;SDS011;46518;48.842;8.926;2023-11-21T12:41:44;9.98;;;7.70;;
1400;SDS011;46518;48.842;8.926;2023-11-21T12:44:16;12.85;;;10.52;;
1400;SDS011;46518;48.842;8.926;2023-11-21T12:46:50;9.85;;;8.23;;
1400;SDS011;46518;48.842;8.926;2023-11-21T12:49:22;8.00;;;6.60;;
1400;SDS011;46518;48.842;8.926;2023-11-21T12:51:54;8.75;;;6.53;;
1400;SDS011;46518;48.842;8.926;2023-11-21T12:54:28;6.20;;;4.90;;
1400;SDS011;46518;48.842;8.926;2023-11-21T12:57:01;6.25;;;4.72;;
1400;SDS011;46518;48.842;8.926;2023-11-21T12:59:51;6.97;;;5.03;;
1400;SDS011;46518;48.842;8.926;2023-11-21T13:02:50;7.35;;;5.90;;
1400;SDS011;46518;48.842;8.926;2023-11-21T13:05:27;6.43;;;5.43;;
1400;SDS011;46518;48.842;8.926;2023-11-21T13:08:01;5.90;;;4.57;;
1400;SDS011;46518;48.842;8.926;2023-11-21T13:10:36;5.57;;;5.05;;
1400;SDS011;46518;48.842;8.926;2023-11-21T13:13:07;8.30;;;6.45;;
1400;SDS011;46518;48.842;8.926;2023-11-21T13:15:48;6.43;;;5.65;;
1400;SDS011;46518;48.842;8.926;2023-11-21T13:18:22;5.50;;;5.00;;
1400;SDS011;46518;48.842;8.926;2023-11-21T13:20:56;6.25;;;5.60;;
1400;SDS011;46518;48.842;8.926;2023-11-21T13:23:28;5.93;;;5.10;;
1400;SDS011;46518;48.842;8.926;2023-11-21T13:26:05;5.75;;;4.60;;
1400;SDS011;46518;48.842;8.926;2023-11-21T13:28:38;6.30;;;4.28;;
1400;SDS011;46518;48.842;8.926;2023-11-21T13:31:15;4.85;;;4.25;;
1400;SDS011;46518;48.842;8.926;2023-11-21T13:33:56;8.55;;;5.28;;
1400;SDS011;46518;48.842;8.926;2023-11-21T13:36:34;5.57;;;4.63;;
1400;SDS011;46518;48.842;8.926;2023-11-21T13:39:05;4.18;;;3.78;;
1400;SDS011;46518;48.842;8.926;2023-11-21T13:41:44;3.20;;;2.90;;
1400;SDS011;46518;48.842;8.926;2023-11-21T13:44:17;6.00;;;4.15;;
1400;SDS011;46518;48.842;8.926;2023-11-21T13:46:55;4.63;;;3.65;;
1400;SDS011;46518;48.842;8.926;2023-11-21T13:49:29;4.30;;;4.00;;
1400;SDS011;46518;48.842;8.926;2023-11-21T13:52:05;5.13;;;3.92;;
1400;SDS011;46518;48.842;8.926;2023-11-21T13:54:37;8.80;;;4.63;;
1400;SDS011;46518;48.842;8.926;2023-11-21T13:57:08;3.75;;;3.45;;
1400;SDS011;46518;48.842;8.926;2023-11-21T13:59:39;5.35;;;3.97;;
1400;SDS011;46518;48.842;8.926;2023-11-21T14:02:14;3.92;;;3.55;;
1400;SDS011;46518;48.842;8.926;2023-11-21T14:04:49;5.80;;;4.57;;
1400;SDS011;46518;48.842;8.926;2023-11-21T14:07:23;4.40;;;3.95;;
1400;SDS011;46518;48.842;8.926;2023-11-21T14:10:05;5.72;;;3.47;;
1400;SDS011;46518;48.842;8.926;2023-11-21T14:12:41;3.13;;;2.92;;
1400;SDS011;46518;48.842;8.926;2023-11-21T14:15:12;3.80;;;3.50;;
1400;SDS011;46518;48.842;8.926;2023-11-21T14:17:47;2.85;;;2.65;;
1400;SDS011;46518;48.842;8.926;2023-11-21T14:20:20;3.92;;;3.20;;
1400;SDS011;46518;48.842;8.926;2023-11-21T14:22:52;6.20;;;3.40;;
1400;SDS011;46518;48.842;8.926;2023-11-21T14:25:25;2.58;;;1.98;;
1400;SDS011;46518;48.842;8.926;2023-11-21T14:27:58;2.70;;;2.50;;
1400;SDS011;46518;48.842;8.926;2023-11-21T14:30:32;1.92;;;1.70;;
1400;SDS011;46518;48.842;8.926;2023-11-21T14:33:06;2.00;;;1.73;;
1400;SDS011;46518;48.842;8.926;2023-11-21T14:35:44;2.55;;;2.35;;
1400;SDS011;46518;48.842;8.926;2023-11-21T14:38:21;3.45;;;3.15;;
1400;SDS011;46518;48.842;8.926;2023-11-21T14:40:54;3.60;;;3.10;;
1400;SDS011;46518;48.842;8.926;2023-11-21T14:43:30;4.03;;;2.50;;
1400;SDS011;46518;48.842;8.926;2023-11-21T14:46:16;2.92;;;2.72;;
1400;SDS011;46518;48.842;8.926;2023-11-21T14:48:49;3.53;;;2.80;;
1400;SDS011;46518;48.842;8.926;2023-11-21T14:51:30;4.22;;;3.45;;
1400;SDS011;46518;48.842;8.926;2023-11-21T14:54:02;3.33;;;2.80;;
1400;SDS011;46518;48.842;8.926;2023-11-21T14:56:36;3.83;;;3.53;;
1400;SDS011;46518;48.842;8.926;2023-11-21T14:59:08;3.67;;;3.38;;
1400;SDS011;46518;48.842;8.926;2023-11-21T15:01:45;5.78;;;4.35;;
1400;SDS011;46518;48.842;8.926;2023-11-21T15:04:24;4.78;;;4.28;;
1400;SDS011;46518;48.842;8.926;2023-11-21T15:07:06;4.32;;;3.90;;
1400;SDS011;46518;48.842;8.926;2023-11-21T15:09:40;6.30;;;4.55;;
1400;SDS011;46518;48.842;8.926;2023-11-21T15:12:16;5.15;;;4.65;;
1400;SDS011;46518;48.842;8.926;2023-11-21T15:14:52;5.60;;;4.28;;
1400;SDS011;46518;48.842;8.926;2023-11-21T15:17:26;8.10;;;5.40;;
1400;SDS011;46518;48.842;8.926;2023-11-21T15:20:01;6.63;;;5.85;;
1400;SDS011;46518;48.842;8.926;2023-11-21T15:22:37;6.15;;;5.22;;
1400;SDS011;46518;48.842;8.926;2023-11-21T15:25:08;7.20;;;5.60;;
1400;SDS011;46518;48.842;8.926;2023-11-21T15:27:41;6.25;;;4.65;;
1400;SDS011;46518;48.842;8.926;2023-11-21T15:30:13;7.03;;;6.32;;
1400;SDS011;46518;48.842;8.926;2023-11-21T15:32:45;6.50;;;5.10;;
1400;SDS011;46518;48.842;8.926;2023-11-21T15:35:18;6.05;;;5.07;;
1400;SDS011;46518;48.842;8.926;2023-11-21T15:37:51;6.85;;;5.25;;
1400;SDS011;46518;48.842;8.926;2023-11-21T15:40:26;6.80;;;6.18;;
1400;SDS011;46518;48.842;8.926;2023-11-21T15:42:57;5.68;;;4.90;;
1400;SDS011;46518;48.842;8.926;2023-11-21T15:45:33;10.88;;;9.88;;
1400;SDS011;46518;48.842;8.926;2023-11-21T15:48:05;18.00;;;16.20;;
1400;SDS011;46518;48.842;8.926;2023-11-21T15:50:39;24.30;;;21.77;;
1400;SDS011;46518;48.842;8.926;2023-11-21T15:53:12;14.82;;;13.25;;
1400;SDS011;46518;48.842;8.926;2023-11-21T15:55:43;12.70;;;11.02;;
1400;SDS011;46518;48.842;8.926;2023-11-21T15:58:14;15.30;;;13.88;;
1400;SDS011;46518;48.842;8.926;2023-11-21T16:00:46;7.75;;;6.85;;
1400;SDS011;46518;48.842;8.926;2023-11-21T16:03:19;7.03;;;6.40;;
1400;SDS011;46518;48.842;8.926;2023-11-21T16:05:52;7.28;;;6.28;;
1400;SDS011;46518;48.842;8.926;2023-11-21T16:08:24;7.03;;;5.82;;
1400;SDS011;46518;48.842;8.926;2023-11-21T16:10:53;7.00;;;6.30;;
1400;SDS011;46518;48.842;8.926;2023-11-21T16:13:21;7.88;;;5.93;;
1400;SDS011;46518;48.842;8.926;2023-11-21T16:15:50;14.63;;;11.70;;
1400;SDS011;46518;48.842;8.926;2023-11-21T16:18:22;12.85;;;9.38;;
1400;SDS011;46518;48.842;8.926;2023-11-21T16:20:50;9.70;;;8.50;;
1400;SDS011;46518;48.842;8.926;2023-11-21T16:23:19;10.23;;;8.15;;
1400;SDS011;46518;48.842;8.926;2023-11-21T16:25:49;14.63;;;9.00;;
1400;SDS011;46518;48.842;8.926;2023-11-21T16:28:21;8.95;;;8.00;;
1400;SDS011;46518;48.842;8.926;2023-11-21T16:30:51;12.35;;;9.07;;
1400;SDS011;46518;48.842;8.926;2023-11-21T16:33:20;20.75;;;13.25;;
1400;SDS011;46518;48.842;8.926;2023-11-21T16:35:48;11.45;;;10.25;;
1400;SDS011;46518;48.842;8.926;2023-11-21T16:38:16;10.15;;;7.90;;